Time;durP1;ratioP1;P1;durP2;ratioP2;P2;SDS_P1;SDS_P2;PMS_P1;PMS_P2;Temp;Humidity;BMP_temperature;BMP_pressure;BME280_temperature;BME280_humidity;BME280_pressure;Samples;Min_cycle;Max_cycle;Signal;HPM_P1;HPM_P2
2021/06/26 00:01:47;;;;;;;12.02;7.60;;;;;;;22.27;59.27;99595.25;5116959;27;20046;-76
2021/06/26 00:04:25;;;;;;;13.57;7.00;;;;;;;22.24;59.59;99584.88;5121219;27;20047;-73
2021/06/26 00:06:51;;;;;;;9.15;6.47;;;;;;;22.22;59.86;99578.81;5112719;28;20044;-76
2021/06/26 00:09:17;;;;;;;11.93;6.65;;;;;;;22.09;60.54;99575.03;5112366;28;20369;-73
2021/06/26 00:11:43;;;;;;;12.65;7.13;;;;;;;21.98;61.11;99578.25;5126092;27;20480;-75
2021/06/26 00:14:08;;;;;;;13.57;7.05;;;;;;;21.89;61.74;99582.13;5121333;27;20050;-74
2021/06/26 00:16:35;;;;;;;11.82;7.20;;;;;;;21.79;62.19;99586.00;5122768;27;20036;-75
2021/06/26 00:19:00;;;;;;;13.60;6.93;;;;;;;21.68;62.89;99574.91;5112511;28;20499;-73
2021/06/26 00:21:26;;;;;;;10.98;7.35;;;;;;;21.56;63.30;99569.19;5115879;27;20035;-73
2021/06/26 00:23:52;;;;;;;12.05;7.43;;;;;;;21.52;63.50;99575.97;5116717;27;20039;-74
2021/06/26 00:26:18;;;;;;;16.55;7.03;;;;;;;21.51;63.30;99577.84;5129103;27;20039;-73
2021/06/26 00:28:45;;;;;;;14.15;7.05;;;;;;;21.53;63.87;99583.00;5118927;27;20500;-73
2021/06/26 00:31:11;;;;;;;12.87;6.67;;;;;;;21.52;64.07;99589.41;5121649;27;20045;-73
2021/06/26 00:33:37;;;;;;;9.98;6.72;;;;;;;21.52;63.87;99595.66;5114533;27;20039;-76
2021/06/26 00:36:04;;;;;;;9.95;6.65;;;;;;;21.55;63.79;99584.47;5114281;27;20039;-75
2021/06/26 00:38:32;;;;;;;10.70;5.85;;;;;;;21.58;63.10;99578.75;5112499;27;20071;-73
2021/06/26 00:40:58;;;;;;;14.68;6.53;;;;;;;21.56;62.99;99585.34;5125156;27;20526;-74
2021/06/26 00:43:24;;;;;;;13.02;6.45;;;;;;;21.58;62.91;99586.00;5100153;28;20071;-73
2021/06/26 00:45:50;;;;;;;12.00;6.57;;;;;;;21.54;63.00;99576.59;5112373;28;20476;-73
2021/06/26 00:48:16;;;;;;;11.95;7.35;;;;;;;21.40;64.62;99592.63;5118958;28;20122;-75
2021/06/26 00:50:42;;;;;;;11.88;7.65;;;;;;;21.31;65.10;99581.16;5126111;27;20043;-77
2021/06/26 00:53:08;;;;;;;9.40;7.05;;;;;;;21.22;66.06;99562.63;5128193;27;20032;-75
2021/06/26 00:55:34;;;;;;;13.32;7.57;;;;;;;21.11;66.38;99570.19;5094060;28;20553;-74
2021/06/26 00:58:01;;;;;;;13.30;7.78;;;;;;;21.07;67.20;99566.22;5112965;28;20044;-73
2021/06/26 01:00:29;;;;;;;14.20;8.27;;;;;;;21.05;67.92;99573.63;5123463;28;20043;-73
2021/06/26 01:02:55;;;;;;;;;;;;;;;21.04;67.66;99563.88;5112640;28;20500;-75
2021/06/26 01:05:21;;;;;;;11.20;7.20;;;;;;;21.10;66.97;99565.81;5127611;27;20018;-73
2021/06/26 01:07:47;;;;;;;11.90;7.72;;;;;;;21.03;68.32;99564.91;5131693;27;20071;-74
2021/06/26 01:10:13;;;;;;;13.77;8.13;;;;;;;20.96;68.30;99567.53;5126864;28;20031;-75
2021/06/26 01:12:39;;;;;;;14.82;7.95;;;;;;;20.99;68.15;99569.81;5130148;28;20039;-73
2021/06/26 01:15:07;;;;;;;14.32;7.45;;;;;;;21.00;68.19;99576.03;5131788;27;20488;-74
2021/06/26 01:17:33;;;;;;;13.73;8.30;;;;;;;20.95;68.16;99568.53;5123656;27;20050;-75
2021/06/26 01:20:00;;;;;;;9.85;7.60;;;;;;;21.00;68.19;99582.25;5115708;28;20122;-75
2021/06/26 01:22:42;;;;;;;13.30;7.60;;;;;;;21.07;68.29;99582.34;5115942;27;20046;-73
2021/06/26 01:25:13;;;;;;;9.77;7.32;;;;;;;21.22;68.17;99589.53;5129094;27;20047;-75
2021/06/26 01:27:40;;;;;;;11.55;7.88;;;;;;;21.27;67.58;99592.47;5113007;27;20043;-74
2021/06/26 01:30:06;;;;;;;10.98;7.60;;;;;;;21.34;67.25;99577.25;5115758;27;20050;-73
2021/06/26 01:32:32;;;;;;;15.13;8.00;;;;;;;21.39;66.75;99574.81;5101043;27;20050;-73
2021/06/26 01:34:58;;;;;;;15.40;8.52;;;;;;;21.43;66.71;99580.63;5135390;27;20039;-73
2021/06/26 01:37:24;;;;;;;14.60;8.93;;;;;;;21.40;65.91;99576.47;5117796;27;20047;-73
2021/06/26 01:39:50;;;;;;;14.10;7.93;;;;;;;21.35;65.62;99578.91;5126646;27;20036;-73
2021/06/26 01:42:15;;;;;;;12.45;7.90;;;;;;;21.40;65.56;99583.72;5135484;27;20416;-75
2021/06/26 01:44:41;;;;;;;13.23;7.90;;;;;;;21.41;65.47;99583.53;5129586;27;20058;-74
2021/06/26 01:47:08;;;;;;;12.57;7.43;;;;;;;21.42;65.29;99573.59;5126061;27;20047;-73
2021/06/26 01:49:35;;;;;;;13.20;7.57;;;;;;;21.41;64.71;99572.75;5128408;27;20473;-73
2021/06/26 01:52:02;;;;;;;15.70;7.90;;;;;;;21.40;64.93;99565.72;5131230;27;20050;-75
2021/06/26 01:54:28;;;;;;;13.18;7.25;;;;;;;21.41;65.24;99561.16;5131305;27;20412;-73
2021/06/26 01:56:54;;;;;;;12.27;7.72;;;;;;;21.36;65.37;99575.19;5124321;27;20042;-73
2021/06/26 01:59:19;;;;;;;16.05;8.32;;;;;;;21.31;66.04;99564.19;5117469;27;20039;-75
2021/06/26 02:01:45;;;;;;;13.95;8.55;;;;;;;21.27;66.23;99550.28;5126318;27;20059;-75
2021/06/26 02:04:11;;;;;;;11.23;7.43;;;;;;;21.27;66.77;99558.34;5121093;27;20038;-73
2021/06/26 02:06:37;;;;;;;12.95;8.05;;;;;;;21.33;66.80;99559.41;5135302;27;20042;-74
2021/06/26 02:09:03;;;;;;;14.65;8.02;;;;;;;21.37;67.06;99557.19;5134825;27;20051;-73
2021/06/26 02:11:29;;;;;;;15.57;8.88;;;;;;;21.38;66.82;99565.06;5113819;27;20038;-75
2021/06/26 02:13:55;;;;;;;12.15;8.48;;;;;;;21.37;67.70;99559.88;5100016;27;20119;-72
2021/06/26 02:16:21;;;;;;;15.82;7.57;;;;;;;21.38;67.53;99559.69;5115534;27;20042;-73
2021/06/26 02:18:47;;;;;;;14.82;7.97;;;;;;;21.44;67.52;99550.84;5130752;27;20043;-75
2021/06/26 02:21:13;;;;;;;18.17;7.60;;;;;;;21.50;67.20;99543.88;5128072;27;20035;-75
2021/06/26 02:23:39;;;;;;;16.50;8.45;;;;;;;21.46;67.91;99548.81;5132452;27;20646;-77
2021/06/26 02:26:06;;;;;;;15.63;8.25;;;;;;;21.41;68.22;99548.53;5126638;27;20043;-76
2021/06/26 02:28:32;;;;;;;14.00;8.70;;;;;;;21.47;68.01;99545.09;5127595;27;20053;-72
2021/06/26 02:30:57;;;;;;;17.23;8.48;;;;;;;21.55;67.16;99546.81;5133907;27;20039;-73
2021/06/26 02:33:23;;;;;;;16.75;8.00;;;;;;;21.59;66.81;99545.41;5134317;27;20041;-73
2021/06/26 02:35:49;;;;;;;16.45;8.00;;;;;;;21.64;66.97;99547.53;5111426;28;20500;-75
2021/06/26 02:38:15;;;;;;;18.13;8.43;;;;;;;21.67;66.75;99547.16;5114399;28;20089;-75
2021/06/26 02:40:40;;;;;;;14.13;7.72;;;;;;;21.66;64.79;99556.25;5130842;27;20514;-75
2021/06/26 02:43:06;;;;;;;13.70;7.47;;;;;;;21.60;64.21;99540.88;5119212;27;20538;-75
2021/06/26 02:45:32;;;;;;;10.95;7.15;;;;;;;21.62;64.03;99554.97;5115306;27;20039;-74
2021/06/26 02:47:58;;;;;;;12.35;7.28;;;;;;;21.62;64.14;99549.56;5133315;27;20066;-74
2021/06/26 02:50:23;;;;;;;12.10;7.40;;;;;;;21.71;64.26;99556.50;5126866;27;20255;-74
2021/06/26 02:52:49;;;;;;;11.32;7.30;;;;;;;21.78;63.72;99552.00;5116337;27;20044;-74
2021/06/26 02:55:15;;;;;;;9.07;6.72;;;;;;;21.85;63.62;99549.38;5114915;27;20043;-73
2021/06/26 02:57:41;;;;;;;8.25;6.68;;;;;;;21.97;62.80;99555.06;5120942;27;20137;-74
2021/06/26 03:00:09;;;;;;;14.65;7.65;;;;;;;21.88;63.41;99553.53;5113865;28;20078;-74
2021/06/26 03:02:34;;;;;;;;;;;;;;;21.83;63.41;99559.47;5115427;27;20063;-73
2021/06/26 03:05:00;;;;;;;14.57;7.93;;;;;;;21.83;63.18;99561.34;5120073;27;20351;-73
2021/06/26 03:07:26;;;;;;;15.48;7.35;;;;;;;21.87;62.72;99543.78;5130267;27;20039;-72
2021/06/26 03:09:52;;;;;;;16.30;8.27;;;;;;;21.95;62.17;99544.47;5133459;27;20441;-74
2021/06/26 03:12:18;;;;;;;11.10;7.25;;;;;;;22.04;62.29;99538.94;5130280;27;20039;-74
2021/06/26 03:14:44;;;;;;;12.30;6.72;;;;;;;22.14;61.58;99534.03;5131410;27;20046;-74
2021/06/26 03:17:10;;;;;;;11.93;7.03;;;;;;;22.26;61.01;99545.09;5098867;28;20527;-75
2021/06/26 03:19:37;;;;;;;12.25;7.35;;;;;;;22.32;60.96;99540.75;5114820;27;20047;-73
2021/06/26 03:22:03;;;;;;;10.02;7.18;;;;;;;22.40;61.00;99546.03;5125365;27;20093;-72
2021/06/26 03:24:29;;;;;;;13.25;7.57;;;;;;;22.54;60.43;99553.16;5132102;27;20571;-73
2021/06/26 03:26:56;;;;;;;14.05;7.18;;;;;;;22.62;59.93;99544.88;5133782;27;20130;-72
2021/06/26 03:29:22;;;;;;;10.25;7.40;;;;;;;22.68;59.72;99545.97;5114244;27;20039;-76
2021/06/26 03:31:48;;;;;;;12.13;7.80;;;;;;;22.74;59.48;99547.00;5118115;27;20099;-73
2021/06/26 03:34:14;;;;;;;14.02;8.30;;;;;;;22.81;59.71;99539.78;5124848;27;20043;-72
2021/06/26 03:36:40;;;;;;;11.30;8.05;;;;;;;22.96;59.15;99531.53;5100845;27;20111;-74
2021/06/26 03:39:06;;;;;;;14.60;8.13;;;;;;;23.20;58.44;99538.28;5115154;27;20036;-73
2021/06/26 03:41:31;;;;;;;15.45;8.00;;;;;;;23.42;58.54;99536.22;5112589;28;20475;-75
2021/06/26 03:44:00;;;;;;;15.80;8.30;;;;;;;23.63;57.57;99537.06;5113729;27;20087;-72
2021/06/26 03:46:26;;;;;;;11.68;8.00;;;;;;;23.74;57.63;99539.16;5123899;27;20046;-74
2021/06/26 03:48:52;;;;;;;14.95;8.30;;;;;;;23.88;57.44;99541.84;5133441;27;20082;-72
2021/06/26 03:51:18;;;;;;;16.27;7.63;;;;;;;23.98;57.21;99547.69;5113850;27;20455;-73
2021/06/26 03:53:46;;;;;;;13.50;8.55;;;;;;;24.00;56.83;99536.66;5113655;27;20549;-74
2021/06/26 03:56:12;;;;;;;16.23;8.13;;;;;;;24.43;56.37;99543.44;5125100;27;20039;-73
2021/06/26 03:58:38;;;;;;;11.23;7.82;;;;;;;25.45;53.27;99534.66;5133465;27;20039;-73
2021/06/26 04:01:04;;;;;;;12.82;7.38;;;;;;;26.45;51.30;99527.47;5131777;27;20046;-72
2021/06/26 04:03:30;;;;;;;16.27;7.60;;;;;;;28.04;47.53;99530.84;5116417;27;20037;-72
2021/06/26 04:05:56;;;;;;;13.18;7.45;;;;;;;29.49;44.43;99533.72;5112307;28;20467;-75
2021/06/26 04:08:21;;;;;;;15.02;7.60;;;;;;;30.61;41.36;99533.75;5120786;27;20039;-74
2021/06/26 04:10:47;;;;;;;15.88;7.15;;;;;;;31.42;39.70;99529.41;5120918;27;20405;-73
2021/06/26 04:13:13;;;;;;;14.90;8.07;;;;;;;32.00;38.00;99531.50;5122365;27;20383;-75
2021/06/26 04:15:39;;;;;;;15.27;7.00;;;;;;;31.72;37.72;99522.56;5122442;27;20336;-75
2021/06/26 04:18:05;;;;;;;14.80;7.10;;;;;;;31.52;38.24;99531.41;5124561;27;20027;-75
2021/06/26 04:20:31;;;;;;;15.10;7.15;;;;;;;31.57;38.07;99525.16;5124743;27;20273;-74
2021/06/26 04:22:57;;;;;;;15.13;6.50;;;;;;;32.85;36.38;99535.19;5125391;27;20514;-73
2021/06/26 04:25:23;;;;;;;11.23;6.55;;;;;;;33.26;35.53;99529.81;5129191;27;20043;-73
2021/06/26 04:27:49;;;;;;;13.07;6.33;;;;;;;32.88;35.43;99529.19;5128903;27;20054;-73
2021/06/26 04:30:15;;;;;;;12.48;6.43;;;;;;;33.50;35.04;99530.13;5120805;27;20308;-75
2021/06/26 04:32:41;;;;;;;12.13;6.60;;;;;;;32.82;35.63;99535.75;5122611;27;20035;-75
2021/06/26 04:35:09;;;;;;;15.83;6.50;;;;;;;32.94;35.52;99533.59;5121353;27;20050;-74
2021/06/26 04:37:35;;;;;;;12.35;6.18;;;;;;;33.79;33.88;99534.22;5121157;27;20122;-74
2021/06/26 04:40:02;;;;;;;16.63;6.60;;;;;;;34.52;32.59;99532.97;5122632;27;20134;-76
2021/06/26 04:42:29;;;;;;;11.73;5.88;;;;;;;35.00;32.15;99537.94;5120815;27;20552;-75
2021/06/26 04:44:55;;;;;;;13.43;6.17;;;;;;;35.81;30.96;99534.03;5128735;27;20099;-78
2021/06/26 04:47:21;;;;;;;14.23;5.50;;;;;;;36.90;29.43;99543.56;5112021;27;20046;-72
2021/06/26 04:49:47;;;;;;;11.63;5.20;;;;;;;37.77;27.97;99537.75;5129851;27;20047;-73
2021/06/26 04:52:13;;;;;;;14.13;7.05;;;;;;;38.64;26.39;99538.03;5130711;27;20288;-75
2021/06/26 04:54:38;;;;;;;10.82;6.07;;;;;;;38.91;26.14;99541.91;5090977;28;20089;-78
2021/06/26 04:57:05;;;;;;;11.23;5.03;;;;;;;39.75;25.05;99542.38;5125738;28;20044;-76
2021/06/26 04:59:32;;;;;;;8.68;5.40;;;;;;;39.98;24.65;99541.50;5126048;27;20507;-78
2021/06/26 05:01:59;;;;;;;13.65;5.47;;;;;;;39.70;24.72;99545.28;5120891;28;20051;-74
2021/06/26 05:04:24;;;;;;;18.48;5.68;;;;;;;38.30;26.71;99549.53;5125967;28;20046;-74
2021/06/26 05:06:50;;;;;;;10.60;5.60;;;;;;;38.38;26.45;99546.03;5117709;27;20039;-74
2021/06/26 05:09:16;;;;;;;13.57;5.57;;;;;;;38.29;26.63;99542.38;5114277;28;20125;-74
2021/06/26 05:11:42;;;;;;;10.25;5.28;;;;;;;38.65;26.30;99545.19;5132759;27;20416;-73
2021/06/26 05:14:10;;;;;;;8.93;5.30;;;;;;;39.50;25.59;99545.78;5132477;27;20496;-76
2021/06/26 05:16:36;;;;;;;15.50;5.30;;;;;;;38.76;25.49;99545.81;5132864;28;20500;-77
2021/06/26 05:19:02;;;;;;;11.82;5.28;;;;;;;38.60;26.09;99538.97;5114422;28;20047;-75
2021/06/26 05:21:28;;;;;;;10.13;5.28;;;;;;;38.87;25.59;99540.06;5133274;28;20035;-77
2021/06/26 05:23:54;;;;;;;9.43;4.95;;;;;;;37.58;27.43;99540.59;5134987;27;20035;-73
2021/06/26 05:26:20;;;;;;;8.15;5.18;;;;;;;38.08;27.10;99536.41;5133837;28;20415;-75
2021/06/26 05:28:46;;;;;;;9.05;4.78;;;;;;;38.09;26.05;99536.09;5114119;28;20043;-75
2021/06/26 05:31:13;;;;;;;9.82;4.93;;;;;;;37.79;25.80;99537.47;5114309;28;20047;-82
2021/06/26 05:33:39;;;;;;;;;;;;;;;37.64;26.60;99533.06;5133104;28;20035;-77
2021/06/26 05:36:05;;;;;;;13.25;5.10;;;;;;;38.36;25.93;99534.50;5113837;28;19919;-73
2021/06/26 05:38:31;;;;;;;12.77;5.28;;;;;;;38.16;26.00;99527.38;5132510;28;20043;-75
2021/06/26 05:40:57;;;;;;;13.02;4.90;;;;;;;38.64;25.63;99531.69;5132610;28;20047;-74
2021/06/26 05:43:23;;;;;;;9.45;4.63;;;;;;;38.70;24.86;99535.16;5131916;28;20565;-74
2021/06/26 05:45:49;;;;;;;17.80;5.38;;;;;;;38.74;25.33;99536.97;5131128;28;20047;-76
2021/06/26 05:48:15;;;;;;;14.27;5.30;;;;;;;37.92;26.30;99536.69;5132220;27;20130;-75
2021/06/26 05:50:41;;;;;;;10.15;5.03;;;;;;;39.08;25.56;99530.16;5132264;27;20488;-75
2021/06/26 05:53:06;;;;;;;11.65;4.97;;;;;;;40.13;24.85;99530.03;5132677;27;20057;-74
2021/06/26 05:55:32;;;;;;;14.65;4.93;;;;;;;39.50;24.31;99529.19;5130110;28;20039;-76
2021/06/26 05:57:58;;;;;;;11.85;4.50;;;;;;;40.47;23.77;99522.16;5115117;28;20072;-76
2021/06/26 06:00:27;;;;;;;14.57;4.90;;;;;;;41.37;22.75;99521.53;5132225;28;20353;-75
2021/06/26 06:02:52;;;;;;;11.32;4.90;;;;;;;40.33;24.19;99520.31;5116643;27;20066;-77
2021/06/26 06:05:18;;;;;;;6.90;3.90;;;;;;;40.25;23.30;99515.56;5136209;27;20077;-76
2021/06/26 06:07:45;;;;;;;9.70;4.68;;;;;;;41.11;22.42;99512.44;5136473;27;20472;-76
2021/06/26 06:10:13;;;;;;;8.63;4.30;;;;;;;40.77;22.62;99514.06;5135899;27;20325;-77
2021/06/26 06:12:40;;;;;;;6.97;3.55;;;;;;;40.71;21.63;99513.38;5135992;27;20495;-74
2021/06/26 06:15:09;;;;;;;10.07;3.90;;;;;;;41.13;21.17;99510.16;5135797;27;20039;-74
2021/06/26 06:17:35;;;;;;;7.47;3.80;;;;;;;41.39;20.59;99513.69;5106737;27;20484;-75
2021/06/26 06:20:04;;;;;;;10.43;4.20;;;;;;;41.67;20.71;99518.06;5124634;27;20156;-77
2021/06/26 06:22:31;;;;;;;8.50;3.92;;;;;;;41.39;21.37;99508.13;5096235;28;20078;-85
2021/06/26 06:24:57;;;;;;;5.95;4.10;;;;;;;41.86;21.24;99504.63;5079492;28;20468;-75
2021/06/26 06:27:23;;;;;;;;;;;;;;;41.26;21.57;99509.13;5114824;28;20070;-76
2021/06/26 06:29:49;;;;;;;8.50;3.80;;;;;;;40.89;22.10;99500.34;5114551;28;19919;-77
2021/06/26 06:32:14;;;;;;;9.23;3.83;;;;;;;41.31;21.81;99510.94;5095876;28;20035;-75
2021/06/26 06:34:40;;;;;;;;;;;;;;;41.36;21.48;99502.44;5115203;28;20075;-78
2021/06/26 06:37:06;;;;;;;7.22;3.80;;;;;;;39.32;23.35;99504.16;5114996;28;19919;-77
2021/06/26 06:39:32;;;;;;;9.02;3.75;;;;;;;38.81;24.29;99497.91;5114946;28;20077;-77
2021/06/26 06:41:57;;;;;;;10.25;3.85;;;;;;;38.77;24.68;99506.00;5114456;28;20039;-80
2021/06/26 06:44:23;;;;;;;;;;;;;;;38.18;25.60;99509.41;5118767;27;20461;-79
2021/06/26 06:46:49;;;;;;;8.93;3.70;;;;;;;37.76;26.04;99511.31;5133725;27;19923;-76
2021/06/26 06:49:15;;;;;;;7.88;3.80;;;;;;;38.59;25.31;99501.41;5133634;27;20087;-76
2021/06/26 06:51:41;;;;;;;7.03;3.92;;;;;;;38.56;25.03;99499.25;5135307;27;20494;-75
2021/06/26 06:54:07;;;;;;;;;;;;;;;38.69;25.27;99498.41;5135622;27;20043;-78
2021/06/26 06:56:33;;;;;;;5.68;3.45;;;;;;;38.00;25.49;99504.81;5135239;27;19919;-77
2021/06/26 06:58:59;;;;;;;7.20;3.75;;;;;;;38.43;25.92;99501.72;5135001;27;20051;-78
2021/06/26 07:01:24;;;;;;;8.00;3.78;;;;;;;38.71;25.55;99498.91;5134217;27;20483;-78
2021/06/26 07:03:50;;;;;;;12.52;3.83;;;;;;;37.86;25.60;99502.84;5135104;27;20039;-77
2021/06/26 07:06:16;;;;;;;9.18;3.85;;;;;;;36.77;26.44;99493.84;5133414;27;20122;-79
2021/06/26 07:08:42;;;;;;;9.75;3.58;;;;;;;36.66;26.63;99493.16;5133878;27;20438;-80
2021/06/26 07:11:08;;;;;;;9.00;3.60;;;;;;;36.86;25.95;99492.91;5135044;27;20095;-83
2021/06/26 07:13:34;;;;;;;8.95;3.70;;;;;;;37.32;25.96;99487.75;5133706;27;20043;-83
2021/06/26 07:16:00;;;;;;;10.18;4.03;;;;;;;39.00;24.44;99489.41;5133549;27;20385;-78
2021/06/26 07:18:26;;;;;;;10.98;4.00;;;;;;;40.77;22.32;99487.13;5134887;27;20090;-85
2021/06/26 07:20:52;;;;;;;;;;;;;;;41.97;20.89;99493.94;5135130;27;20570;-78
2021/06/26 07:23:18;;;;;;;11.05;3.80;;;;;;;43.36;19.65;99484.09;5134567;27;20014;-76
2021/06/26 07:25:43;;;;;;;;;;;;;;;43.45;19.57;99488.41;5135128;27;20039;-79
2021/06/26 07:28:09;;;;;;;7.70;4.38;;;;;;;42.70;19.86;99491.25;5134271;27;20071;-77
2021/06/26 07:30:35;;;;;;;7.07;3.63;;;;;;;42.95;19.72;99490.22;5133918;27;20031;-77
2021/06/26 07:33:01;;;;;;;;;;;;;;;42.15;20.27;99491.91;5134817;27;20494;-82
2021/06/26 07:35:27;;;;;;;6.38;4.05;;;;;;;42.95;19.33;99493.00;5134138;27;19934;-77
2021/06/26 07:37:52;;;;;;;;;;;;;;;43.52;18.87;99493.44;5134877;27;20074;-75
2021/06/26 07:40:18;;;;;;;7.95;4.03;;;;;;;43.83;19.45;99502.44;5134184;27;19987;-76
2021/06/26 07:42:44;;;;;;;11.18;5.45;;;;;;;44.17;18.92;99503.97;5133981;27;20104;-77
2021/06/26 07:45:11;;;;;;;10.73;5.32;;;;;;;45.56;17.79;99502.06;5134177;27;20054;-80
2021/06/26 07:47:37;;;;;;;7.93;4.55;;;;;;;46.59;16.17;99506.91;5134265;27;20170;-81
2021/06/26 07:50:04;;;;;;;4.80;4.28;;;;;;;46.76;15.70;99505.69;5115691;27;20155;-77
2021/06/26 07:52:31;;;;;;;7.88;3.92;;;;;;;46.17;15.66;99498.00;5133886;27;20556;-78
2021/06/26 07:54:56;;;;;;;7.88;3.60;;;;;;;46.12;15.28;99494.66;5134367;27;20043;-81
2021/06/26 07:57:22;;;;;;;5.32;3.45;;;;;;;47.10;14.59;99497.59;5115662;27;20043;-79
2021/06/26 07:59:48;;;;;;;7.90;4.20;;;;;;;48.19;14.10;99494.66;5133995;27;20070;-78
2021/06/26 08:02:14;;;;;;;6.07;3.83;;;;;;;48.36;13.70;99499.75;5115831;27;20039;-81
2021/06/26 08:04:40;;;;;;;8.25;3.97;;;;;;;47.88;14.58;99491.81;5081284;27;20038;-78
2021/06/26 08:07:06;;;;;;;6.07;3.78;;;;;;;48.31;13.96;99491.66;5134220;27;20050;-83
2021/06/26 08:09:32;;;;;;;5.47;4.05;;;;;;;47.14;14.63;99493.66;5115509;27;20046;-76
2021/06/26 08:11:58;;;;;;;8.80;3.78;;;;;;;46.47;15.07;99488.25;5134486;27;20035;-83
2021/06/26 08:14:24;;;;;;;7.93;4.20;;;;;;;46.68;14.67;99482.31;5098319;27;20651;-76
2021/06/26 08:16:50;;;;;;;10.98;4.40;;;;;;;47.52;14.34;99479.16;5134203;27;20047;-77
2021/06/26 08:19:16;;;;;;;6.32;4.38;;;;;;;47.52;13.88;99484.75;5134319;27;20084;-79
2021/06/26 08:21:43;;;;;;;15.43;5.75;;;;;;;47.81;14.29;99486.06;5134150;27;20106;-76
2021/06/26 08:24:09;;;;;;;7.15;3.90;;;;;;;47.34;13.59;99485.22;5115047;27;20046;-83
2021/06/26 08:26:35;;;;;;;10.23;4.30;;;;;;;47.73;14.44;99484.31;5114536;27;20043;-82
2021/06/26 08:29:02;;;;;;;6.70;4.10;;;;;;;47.52;13.44;99484.75;5133491;27;20065;-77
2021/06/26 08:31:28;;;;;;;8.02;3.70;;;;;;;48.30;13.42;99473.19;5133561;27;20054;-77
2021/06/26 08:33:54;;;;;;;6.40;3.55;;;;;;;47.77;12.86;99476.75;5115269;27;20035;-81
2021/06/26 08:36:20;;;;;;;12.43;4.50;;;;;;;48.08;13.22;99460.84;5133415;27;20043;-75
2021/06/26 08:38:46;;;;;;;9.13;4.47;;;;;;;46.94;13.07;99469.66;5134364;27;20046;-82
2021/06/26 08:41:12;;;;;;;7.60;3.80;;;;;;;46.66;13.35;99473.47;5115758;27;20192;-85
2021/06/26 08:43:39;;;;;;;7.63;3.35;;;;;;;46.87;13.69;99475.13;5100376;27;20073;-78
2021/06/26 08:46:05;;;;;;;9.10;3.80;;;;;;;47.41;13.54;99450.91;5132219;27;20405;-83
2021/06/26 08:48:32;;;;;;;7.45;4.00;;;;;;;47.39;13.16;99453.31;5098752;28;20035;-78
2021/06/26 08:50:59;;;;;;;9.85;3.78;;;;;;;47.01;13.10;99455.81;5104406;28;20424;-81
2021/06/26 08:53:25;;;;;;;7.45;3.92;;;;;;;45.98;13.99;99459.59;5070305;27;20039;-79
2021/06/26 08:55:53;;;;;;;10.68;4.63;;;;;;;45.52;14.10;99468.41;5112198;28;20043;-80
2021/06/26 08:58:20;;;;;;;7.07;3.80;;;;;;;45.26;13.98;99449.38;5119561;28;20057;-84
2021/06/26 09:00:47;;;;;;;5.28;3.50;;;;;;;45.18;14.45;99456.75;5087079;28;20061;-80
2021/06/26 09:03:15;;;;;;;8.27;3.80;;;;;;;46.16;14.23;99448.81;5104020;28;20059;-77
2021/06/26 09:05:43;;;;;;;6.80;3.92;;;;;;;46.97;13.60;99452.94;5122319;28;20047;-80
2021/06/26 09:08:16;;;;;;;7.32;3.75;;;;;;;46.18;13.34;99449.25;5070369;28;20039;-80
2021/06/26 09:10:45;;;;;;;8.27;3.83;;;;;;;45.78;13.88;99444.72;5101798;28;20442;-81
2021/06/26 09:13:11;;;;;;;6.70;3.70;;;;;;;45.56;14.35;99448.97;5130207;28;20039;-78
2021/06/26 09:15:37;;;;;;;8.15;3.70;;;;;;;44.99;14.71;99448.22;5133077;28;20190;-81
2021/06/26 09:18:11;;;;;;;7.93;3.45;;;;;;;45.43;13.90;99444.59;5133273;27;20035;-78
2021/06/26 09:20:39;;;;;;;6.20;3.35;;;;;;;45.44;14.14;99438.66;5114657;28;20039;-79
2021/06/26 09:23:18;;;;;;;7.65;3.70;;;;;;;46.14;13.29;99441.97;5133255;28;20046;-78
2021/06/26 09:25:45;;;;;;;5.57;3.25;;;;;;;46.58;12.92;99435.34;5097651;28;20051;-83
2021/06/26 09:28:26;;;;;;;6.65;3.53;;;;;;;47.03;12.71;99430.22;5081148;28;20035;-86
2021/06/26 09:30:54;;;;;;;7.03;3.25;;;;;;;47.31;12.20;99429.97;5081467;28;20046;-80
2021/06/26 09:33:25;;;;;;;8.40;3.58;;;;;;;46.03;13.23;99436.94;5097737;28;20047;-84
2021/06/26 09:36:11;;;;;;;6.28;3.42;;;;;;;44.73;13.97;99432.75;5133368;27;20088;-79
2021/06/26 09:38:55;;;;;;;8.57;3.45;;;;;;;44.79;14.02;99441.69;5100911;27;20034;-78
2021/06/26 09:41:22;;;;;;;;;;;;;;;44.87;13.98;99438.75;5119460;27;20528;-82
2021/06/26 09:43:48;;;;;;;5.20;3.22;;;;;;;44.48;14.53;99432.00;5137185;27;19919;-80
2021/06/26 09:46:16;;;;;;;8.38;3.33;;;;;;;43.75;14.95;99418.59;5137053;27;20050;-80
2021/06/26 09:48:52;;;;;;;4.70;3.13;;;;;;;44.52;14.48;99422.59;5136947;27;20062;-82
2021/06/26 09:51:23;;;;;;;5.60;3.08;;;;;;;44.21;14.81;99424.03;5136996;27;20143;-80
2021/06/26 09:53:53;;;;;;;6.47;3.10;;;;;;;44.85;14.71;99418.75;5137172;27;20042;-81
2021/06/26 09:56:19;;;;;;;9.65;3.47;;;;;;;45.39;14.01;99416.59;5135942;27;20039;-82
2021/06/26 09:58:52;;;;;;;7.38;3.67;;;;;;;45.32;14.12;99419.22;5135227;27;20134;-81
2021/06/26 10:01:20;;;;;;;7.38;3.33;;;;;;;45.37;13.65;99416.94;5118399;27;20035;-85
2021/06/26 10:03:51;;;;;;;8.50;3.75;;;;;;;45.46;14.21;99408.38;5089012;28;20054;-77
2021/06/26 10:06:18;;;;;;;7.32;3.30;;;;;;;44.23;14.19;99410.56;5096919;28;20040;-81
2021/06/26 10:08:45;;;;;;;5.05;3.33;;;;;;;42.27;15.99;99412.50;5080201;28;20051;-78
2021/06/26 10:11:11;;;;;;;14.90;3.58;;;;;;;41.79;16.28;99397.94;5097511;28;20035;-77
2021/06/26 10:13:37;;;;;;;9.00;4.05;;;;;;;41.04;16.90;99401.97;5080195;28;20040;-77
2021/06/26 10:16:03;;;;;;;6.07;3.20;;;;;;;40.64;17.68;99402.13;5115846;28;20051;-76
2021/06/26 10:18:30;;;;;;;10.98;3.70;;;;;;;40.78;18.64;99404.72;5115683;28;20054;-74
2021/06/26 10:20:57;;;;;;;4.85;3.20;;;;;;;40.89;17.50;99397.72;5115780;28;20040;-81
2021/06/26 10:23:22;;;;;;;7.20;3.10;;;;;;;41.54;17.33;99397.72;5097532;28;20039;-80
2021/06/26 10:25:48;;;;;;;5.57;3.72;;;;;;;41.35;17.14;99392.53;5080313;28;20043;-77
2021/06/26 10:28:19;;;;;;;10.60;7.47;;;;;;;40.98;18.25;99398.50;5115636;28;20088;-79
2021/06/26 10:31:12;;;;;;;5.97;3.95;;;;;;;40.73;18.69;99398.22;5113938;28;20076;-79
2021/06/26 10:33:38;;;;;;;9.02;4.68;;;;;;;40.65;18.88;99399.03;5096859;28;20141;-76
2021/06/26 10:36:04;;;;;;;7.18;3.78;;;;;;;40.80;18.64;99400.47;5096863;28;20504;-77
2021/06/26 10:38:43;;;;;;;7.47;3.67;;;;;;;40.56;18.91;99392.69;5115105;28;20040;-78
2021/06/26 10:41:20;;;;;;;8.13;4.10;;;;;;;40.20;19.37;99391.00;5115194;28;20385;-79
2021/06/26 10:43:57;;;;;;;11.00;4.50;;;;;;;40.69;18.94;99391.69;5122099;27;20059;-77
2021/06/26 10:46:23;;;;;;;5.85;3.78;;;;;;;40.66;18.54;99391.53;5135186;27;20126;-76
2021/06/26 10:49:03;;;;;;;7.38;3.42;;;;;;;40.27;18.92;99391.34;5135438;27;20091;-76
2021/06/26 10:51:40;;;;;;;8.88;3.67;;;;;;;39.55;19.54;99385.91;5135457;27;20055;-82
2021/06/26 10:54:14;;;;;;;4.63;3.53;;;;;;;39.47;19.67;99392.25;5135656;27;20042;-77
2021/06/26 10:56:42;;;;;;;8.68;3.88;;;;;;;39.38;19.58;99392.19;5135597;27;20054;-76
2021/06/26 10:59:11;;;;;;;6.05;3.65;;;;;;;39.35;19.89;99394.78;5135509;27;20047;-74
2021/06/26 11:01:37;;;;;;;7.63;4.10;;;;;;;39.42;19.84;99395.16;5135292;27;20129;-78
2021/06/26 11:04:10;;;;;;;9.07;4.00;;;;;;;39.29;20.26;99396.88;5135449;27;20043;-75
2021/06/26 11:06:37;;;;;;;6.43;3.40;;;;;;;38.32;21.10;99398.06;5134918;27;20496;-78
2021/06/26 11:09:11;;;;;;;6.35;3.85;;;;;;;38.32;20.82;99389.78;5133738;27;20178;-79
2021/06/26 11:11:42;;;;;;;4.95;3.88;;;;;;;38.08;21.14;99388.06;5133598;27;20126;-74
2021/06/26 11:14:12;;;;;;;7.93;4.20;;;;;;;38.11;20.96;99378.34;5135145;27;20039;-78
2021/06/26 11:16:40;;;;;;;6.35;3.95;;;;;;;38.23;21.17;99375.06;5135167;27;20539;-75
2021/06/26 11:19:06;;;;;;;7.28;3.80;;;;;;;38.15;20.97;99366.38;5134818;27;20039;-75
2021/06/26 11:21:39;;;;;;;;;;;;;;;38.11;21.58;99359.84;5134832;27;20727;-77
2021/06/26 11:24:05;;;;;;;6.38;3.65;;;;;;;38.47;21.63;99367.34;5134870;27;19922;-76
2021/06/26 11:26:31;;;;;;;7.68;3.80;;;;;;;38.41;20.82;99367.75;5134513;27;20039;-76
2021/06/26 11:28:56;;;;;;;8.77;4.15;;;;;;;38.28;21.25;99361.97;5134706;27;20057;-74
2021/06/26 11:31:22;;;;;;;9.27;3.33;;;;;;;38.11;20.71;99356.25;5134508;27;20130;-74